sensor_id;sensor_type;location;lat;lon;timestamp;P1;durP1;ratioP1;P2;durP2;ratioP2
12288;SDS011;6207;49.308;7.336;2022-07-24T07:10:08;13.63;;;12.63;;
12288;SDS011;6207;49.308;7.336;2022-07-24T07:12:58;13.50;;;12.60;;
12288;SDS011;6207;49.308;7.336;2022-07-24T07:15:26;13.90;;;12.90;;
12288;SDS011;6207;49.308;7.336;2022-07-24T07:17:53;13.65;;;12.75;;
12288;SDS011;6207;49.308;7.336;2022-07-24T07:20:20;12.98;;;11.98;;
12288;SDS011;6207;49.308;7.336;2022-07-24T07:22:46;13.45;;;12.40;;
12288;SDS011;6207;49.308;7.336;2022-07-24T07:25:13;13.68;;;12.70;;
12288;SDS011;6207;49.308;7.336;2022-07-24T07:27:40;13.02;;;12.05;;
12288;SDS011;6207;49.308;7.336;2022-07-24T07:30:08;12.30;;;11.50;;
12288;SDS011;6207;49.308;7.336;2022-07-24T07:32:35;13.15;;;12.25;;
12288;SDS011;6207;49.308;7.336;2022-07-24T07:35:02;13.75;;;12.82;;
12288;SDS011;6207;49.308;7.336;2022-07-24T07:37:47;13.30;;;12.40;;
12288;SDS011;6207;49.308;7.336;2022-07-24T07:40:29;12.60;;;11.80;;
12288;SDS011;6207;49.308;7.336;2022-07-24T07:42:56;12.68;;;11.80;;
12288;SDS011;6207;49.308;7.336;2022-07-24T07:45:22;12.90;;;12.05;;
12288;SDS011;6207;49.308;7.336;2022-07-24T07:47:56;13.18;;;12.23;;
12288;SDS011;6207;49.308;7.336;2022-07-24T07:50:23;13.13;;;12.23;;
12288;SDS011;6207;49.308;7.336;2022-07-24T07:52:51;12.45;;;11.55;;
12288;SDS011;6207;49.308;7.336;2022-07-24T07:55:17;12.60;;;11.80;;
12288;SDS011;6207;49.308;7.336;2022-07-24T07:57:44;13.20;;;12.30;;
12288;SDS011;6207;49.308;7.336;2022-07-24T08:00:30;12.63;;;11.70;;
12288;SDS011;6207;49.308;7.336;2022-07-24T08:02:59;13.18;;;12.23;;
12288;SDS011;6207;49.308;7.336;2022-07-24T08:05:26;13.07;;;12.18;;
12288;SDS011;6207;49.308;7.336;2022-07-24T08:07:52;12.35;;;11.57;;
12288;SDS011;6207;49.308;7.336;2022-07-24T08:10:20;12.75;;;11.85;;
12288;SDS011;6207;49.308;7.336;2022-07-24T08:12:47;13.50;;;12.35;;
12288;SDS011;6207;49.308;7.336;2022-07-24T08:15:14;12.98;;;11.98;;
12288;SDS011;6207;49.308;7.336;2022-07-24T08:17:43;13.07;;;12.18;;
12288;SDS011;6207;49.308;7.336;2022-07-24T08:20:10;14.10;;;12.98;;
12288;SDS011;6207;49.308;7.336;2022-07-24T08:22:37;13.05;;;11.95;;
12288;SDS011;6207;49.308;7.336;2022-07-24T08:25:04;14.05;;;13.02;;
12288;SDS011;6207;49.308;7.336;2022-07-24T08:27:34;12.48;;;11.77;;
12288;SDS011;6207;49.308;7.336;2022-07-24T08:30:04;12.77;;;11.80;;
12288;SDS011;6207;49.308;7.336;2022-07-24T08:32:32;12.85;;;11.98;;
12288;SDS011;6207;49.308;7.336;2022-07-24T08:34:59;12.18;;;11.48;;
12288;SDS011;6207;49.308;7.336;2022-07-24T08:37:26;12.38;;;11.57;;
12288;SDS011;6207;49.308;7.336;2022-07-24T08:39:53;12.18;;;11.48;;
12288;SDS011;6207;49.308;7.336;2022-07-24T08:42:21;12.18;;;11.38;;
12288;SDS011;6207;49.308;7.336;2022-07-24T08:44:48;12.75;;;11.95;;
12288;SDS011;6207;49.308;7.336;2022-07-24T08:47:15;12.07;;;11.35;;
12288;SDS011;6207;49.308;7.336;2022-07-24T08:49:42;12.38;;;11.57;;
12288;SDS011;6207;49.308;7.336;2022-07-24T08:52:12;12.40;;;11.60;;
12288;SDS011;6207;49.308;7.336;2022-07-24T08:54:40;12.07;;;11.27;;
12288;SDS011;6207;49.308;7.336;2022-07-24T08:57:07;12.50;;;11.70;;
12288;SDS011;6207;49.308;7.336;2022-07-24T08:59:34;12.52;;;11.73;;
12288;SDS011;6207;49.308;7.336;2022-07-24T09:02:01;12.07;;;11.27;;
12288;SDS011;6207;49.308;7.336;2022-07-24T09:04:41;11.95;;;11.15;;
12288;SDS011;6207;49.308;7.336;2022-07-24T09:07:17;12.85;;;11.95;;
12288;SDS011;6207;49.308;7.336;2022-07-24T09:10:02;12.30;;;11.40;;
12288;SDS011;6207;49.308;7.336;2022-07-24T09:12:41;12.10;;;11.30;;
12288;SDS011;6207;49.308;7.336;2022-07-24T09:15:12;11.90;;;11.20;;
12288;SDS011;6207;49.308;7.336;2022-07-24T09:17:47;12.18;;;11.38;;
12288;SDS011;6207;49.308;7.336;2022-07-24T09:20:16;12.38;;;11.57;;
12288;SDS011;6207;49.308;7.336;2022-07-24T09:22:43;12.00;;;11.10;;
12288;SDS011;6207;49.308;7.336;2022-07-24T09:25:28;12.57;;;11.60;;
12288;SDS011;6207;49.308;7.336;2022-07-24T09:27:56;11.73;;;11.02;;
12288;SDS011;6207;49.308;7.336;2022-07-24T09:33:14;11.55;;;10.85;;
12288;SDS011;6207;49.308;7.336;2022-07-24T09:36:11;11.35;;;10.75;;
12288;SDS011;6207;49.308;7.336;2022-07-24T09:38:51;12.55;;;11.50;;
12288;SDS011;6207;49.308;7.336;2022-07-24T09:41:22;11.35;;;10.65;;
12288;SDS011;6207;49.308;7.336;2022-07-24T09:43:57;12.15;;;11.35;;
12288;SDS011;6207;49.308;7.336;2022-07-24T09:46:25;11.90;;;11.10;;
12288;SDS011;6207;49.308;7.336;2022-07-24T09:48:57;11.93;;;11.13;;
12288;SDS011;6207;49.308;7.336;2022-07-24T09:51:26;12.05;;;11.23;;
12288;SDS011;6207;49.308;7.336;2022-07-24T09:53:59;11.93;;;11.13;;
12288;SDS011;6207;49.308;7.336;2022-07-24T09:56:27;11.70;;;10.98;;
12288;SDS011;6207;49.308;7.336;2022-07-24T09:58:56;11.63;;;10.93;;
12288;SDS011;6207;49.308;7.336;2022-07-24T10:01:24;11.75;;;10.85;;
12288;SDS011;6207;49.308;7.336;2022-07-24T10:03:53;11.50;;;10.80;;
12288;SDS011;6207;49.308;7.336;2022-07-24T10:06:22;11.60;;;10.90;;
12288;SDS011;6207;49.308;7.336;2022-07-24T10:08:52;11.65;;;10.73;;
12288;SDS011;6207;49.308;7.336;2022-07-24T10:11:20;11.80;;;11.10;;
12288;SDS011;6207;49.308;7.336;2022-07-24T10:13:50;12.05;;;11.43;;
12288;SDS011;6207;49.308;7.336;2022-07-24T10:16:29;11.68;;;10.98;;
12288;SDS011;6207;49.308;7.336;2022-07-24T10:19:03;11.80;;;11.00;;
12288;SDS011;6207;49.308;7.336;2022-07-24T10:21:33;11.52;;;10.88;;
12288;SDS011;6207;49.308;7.336;2022-07-24T10:24:21;11.63;;;10.93;;
12288;SDS011;6207;49.308;7.336;2022-07-24T10:27:03;12.10;;;11.30;;
12288;SDS011;6207;49.308;7.336;2022-07-24T10:29:33;12.20;;;11.50;;
12288;SDS011;6207;49.308;7.336;2022-07-24T10:32:02;11.70;;;11.05;;
12288;SDS011;6207;49.308;7.336;2022-07-24T10:34:48;11.40;;;10.60;;
12288;SDS011;6207;49.308;7.336;2022-07-24T10:40:38;11.48;;;10.68;;
12288;SDS011;6207;49.308;7.336;2022-07-24T10:43:30;11.93;;;11.05;;
12288;SDS011;6207;49.308;7.336;2022-07-24T10:48:26;11.73;;;11.02;;
12288;SDS011;6207;49.308;7.336;2022-07-24T10:51:00;11.77;;;11.07;;
12288;SDS011;6207;49.308;7.336;2022-07-24T11:01:48;11.82;;;11.10;;
12288;SDS011;6207;49.308;7.336;2022-07-24T11:09:22;11.73;;;11.02;;
12288;SDS011;6207;49.308;7.336;2022-07-24T11:20:04;11.20;;;10.50;;
12288;SDS011;6207;49.308;7.336;2022-07-24T11:25:17;11.80;;;11.00;;
